sensor_id;sensor_type;location;lat;lon;timestamp;P1;durP1;ratioP1;P2;durP2;ratioP2
26965;SDS011;14522;52.068;4.414;2023-02-17T00:00:50;20.17;;;8.13;;
26965;SDS011;14522;52.068;4.414;2023-02-17T00:03:17;24.77;;;8.75;;
26965;SDS011;14522;52.068;4.414;2023-02-17T00:05:43;17.90;;;8.23;;
26965;SDS011;14522;52.068;4.414;2023-02-17T00:08:10;24.80;;;8.70;;
26965;SDS011;14522;52.068;4.414;2023-02-17T00:10:37;24.58;;;10.35;;
26965;SDS011;14522;52.068;4.414;2023-02-17T00:13:03;21.77;;;9.77;;
26965;SDS011;14522;52.068;4.414;2023-02-17T00:15:29;23.67;;;9.35;;
26965;SDS011;14522;52.068;4.414;2023-02-17T00:17:56;23.48;;;9.73;;
26965;SDS011;14522;52.068;4.414;2023-02-17T00:20:22;22.92;;;9.27;;
26965;SDS011;14522;52.068;4.414;2023-02-17T00:22:49;19.40;;;8.98;;
26965;SDS011;14522;52.068;4.414;2023-02-17T00:25:15;21.55;;;10.40;;
26965;SDS011;14522;52.068;4.414;2023-02-17T00:27:41;20.10;;;9.27;;
26965;SDS011;14522;52.068;4.414;2023-02-17T00:30:08;17.25;;;8.18;;
26965;SDS011;14522;52.068;4.414;2023-02-17T00:32:35;18.08;;;8.13;;
26965;SDS011;14522;52.068;4.414;2023-02-17T00:35:01;18.08;;;8.68;;
26965;SDS011;14522;52.068;4.414;2023-02-17T00:37:27;15.98;;;7.97;;
26965;SDS011;14522;52.068;4.414;2023-02-17T00:39:54;16.27;;;8.90;;
26965;SDS011;14522;52.068;4.414;2023-02-17T00:42:20;16.77;;;8.18;;
26965;SDS011;14522;52.068;4.414;2023-02-17T00:44:46;18.42;;;8.93;;
26965;SDS011;14522;52.068;4.414;2023-02-17T00:47:13;18.58;;;9.32;;
26965;SDS011;14522;52.068;4.414;2023-02-17T00:49:39;20.33;;;9.70;;
26965;SDS011;14522;52.068;4.414;2023-02-17T00:52:06;20.08;;;9.90;;
26965;SDS011;14522;52.068;4.414;2023-02-17T00:54:32;20.77;;;9.90;;
26965;SDS011;14522;52.068;4.414;2023-02-17T00:56:59;21.15;;;9.35;;
26965;SDS011;14522;52.068;4.414;2023-02-17T00:59:25;20.83;;;9.63;;
26965;SDS011;14522;52.068;4.414;2023-02-17T01:01:52;19.77;;;8.93;;
26965;SDS011;14522;52.068;4.414;2023-02-17T01:04:18;20.38;;;10.63;;
26965;SDS011;14522;52.068;4.414;2023-02-17T01:06:44;24.20;;;11.23;;
26965;SDS011;14522;52.068;4.414;2023-02-17T01:09:12;22.23;;;11.85;;
26965;SDS011;14522;52.068;4.414;2023-02-17T01:11:38;21.60;;;10.68;;
26965;SDS011;14522;52.068;4.414;2023-02-17T01:14:05;24.83;;;11.80;;
26965;SDS011;14522;52.068;4.414;2023-02-17T01:16:36;24.40;;;11.05;;
26965;SDS011;14522;52.068;4.414;2023-02-17T01:19:04;20.20;;;9.95;;
26965;SDS011;14522;52.068;4.414;2023-02-17T01:21:31;20.20;;;8.57;;
26965;SDS011;14522;52.068;4.414;2023-02-17T01:23:58;18.05;;;8.60;;
26965;SDS011;14522;52.068;4.414;2023-02-17T01:26:26;22.25;;;9.88;;
26965;SDS011;14522;52.068;4.414;2023-02-17T01:28:53;18.85;;;9.40;;
26965;SDS011;14522;52.068;4.414;2023-02-17T01:31:20;18.77;;;9.82;;
26965;SDS011;14522;52.068;4.414;2023-02-17T01:33:46;19.60;;;8.73;;
26965;SDS011;14522;52.068;4.414;2023-02-17T01:36:14;18.48;;;9.00;;
26965;SDS011;14522;52.068;4.414;2023-02-17T01:38:40;16.92;;;8.85;;
26965;SDS011;14522;52.068;4.414;2023-02-17T01:41:07;21.77;;;10.43;;
26965;SDS011;14522;52.068;4.414;2023-02-17T01:43:34;17.70;;;8.80;;
26965;SDS011;14522;52.068;4.414;2023-02-17T01:46:02;16.33;;;9.00;;
26965;SDS011;14522;52.068;4.414;2023-02-17T01:48:48;19.23;;;10.50;;
26965;SDS011;14522;52.068;4.414;2023-02-17T01:51:16;19.50;;;9.13;;
26965;SDS011;14522;52.068;4.414;2023-02-17T01:53:45;17.25;;;9.10;;
26965;SDS011;14522;52.068;4.414;2023-02-17T01:56:13;17.20;;;8.77;;
26965;SDS011;14522;52.068;4.414;2023-02-17T01:58:41;17.33;;;9.40;;
26965;SDS011;14522;52.068;4.414;2023-02-17T02:01:08;19.33;;;9.80;;
26965;SDS011;14522;52.068;4.414;2023-02-17T02:03:35;16.55;;;8.63;;
26965;SDS011;14522;52.068;4.414;2023-02-17T02:06:03;15.60;;;8.13;;
26965;SDS011;14522;52.068;4.414;2023-02-17T02:08:33;14.52;;;7.55;;
26965;SDS011;14522;52.068;4.414;2023-02-17T02:11:01;15.30;;;6.68;;
26965;SDS011;14522;52.068;4.414;2023-02-17T02:13:27;14.50;;;7.68;;
26965;SDS011;14522;52.068;4.414;2023-02-17T02:15:56;19.55;;;8.90;;
26965;SDS011;14522;52.068;4.414;2023-02-17T02:21:08;18.20;;;7.80;;
26965;SDS011;14522;52.068;4.414;2023-02-17T02:23:51;15.30;;;7.70;;
26965;SDS011;14522;52.068;4.414;2023-02-17T02:28:54;17.13;;;8.07;;
26965;SDS011;14522;52.068;4.414;2023-02-17T02:33:58;15.02;;;7.57;;
26965;SDS011;14522;52.068;4.414;2023-02-17T02:36:28;16.92;;;8.50;;
26965;SDS011;14522;52.068;4.414;2023-02-17T02:39:01;14.88;;;7.28;;
26965;SDS011;14522;52.068;4.414;2023-02-17T02:41:30;17.52;;;8.13;;
26965;SDS011;14522;52.068;4.414;2023-02-17T02:43:57;16.67;;;9.10;;
26965;SDS011;14522;52.068;4.414;2023-02-17T02:46:24;16.60;;;8.43;;
26965;SDS011;14522;52.068;4.414;2023-02-17T02:48:50;15.75;;;7.97;;
26965;SDS011;14522;52.068;4.414;2023-02-17T02:51:23;14.63;;;8.18;;
26965;SDS011;14522;52.068;4.414;2023-02-17T02:56:30;17.35;;;7.90;;
26965;SDS011;14522;52.068;4.414;2023-02-17T03:01:56;23.95;;;8.90;;
26965;SDS011;14522;52.068;4.414;2023-02-17T03:06:52;20.65;;;9.32;;
26965;SDS011;14522;52.068;4.414;2023-02-17T03:09:20;23.20;;;9.63;;
26965;SDS011;14522;52.068;4.414;2023-02-17T03:11:47;17.33;;;7.78;;
26965;SDS011;14522;52.068;4.414;2023-02-17T03:14:15;21.15;;;9.05;;
26965;SDS011;14522;52.068;4.414;2023-02-17T03:16:42;19.27;;;9.68;;
26965;SDS011;14522;52.068;4.414;2023-02-17T03:19:09;21.15;;;9.32;;
26965;SDS011;14522;52.068;4.414;2023-02-17T03:21:40;22.35;;;10.07;;
26965;SDS011;14522;52.068;4.414;2023-02-17T03:24:07;22.88;;;9.60;;
26965;SDS011;14522;52.068;4.414;2023-02-17T03:26:33;19.02;;;9.35;;
26965;SDS011;14522;52.068;4.414;2023-02-17T03:29:00;23.63;;;9.95;;
26965;SDS011;14522;52.068;4.414;2023-02-17T03:31:26;19.60;;;8.30;;
26965;SDS011;14522;52.068;4.414;2023-02-17T03:33:55;17.63;;;8.23;;
26965;SDS011;14522;52.068;4.414;2023-02-17T03:36:22;25.88;;;7.90;;
26965;SDS011;14522;52.068;4.414;2023-02-17T03:38:48;20.08;;;7.13;;
26965;SDS011;14522;52.068;4.414;2023-02-17T03:41:15;29.33;;;9.63;;
26965;SDS011;14522;52.068;4.414;2023-02-17T03:43:41;23.27;;;7.88;;
26965;SDS011;14522;52.068;4.414;2023-02-17T03:46:12;23.95;;;8.48;;
26965;SDS011;14522;52.068;4.414;2023-02-17T03:48:38;22.38;;;7.93;;
26965;SDS011;14522;52.068;4.414;2023-02-17T03:51:11;24.65;;;8.88;;
26965;SDS011;14522;52.068;4.414;2023-02-17T03:53:38;20.58;;;8.02;;
26965;SDS011;14522;52.068;4.414;2023-02-17T03:56:05;24.58;;;8.48;;
26965;SDS011;14522;52.068;4.414;2023-02-17T03:58:32;19.85;;;8.25;;
26965;SDS011;14522;52.068;4.414;2023-02-17T04:00:58;23.58;;;9.63;;
26965;SDS011;14522;52.068;4.414;2023-02-17T04:03:25;20.52;;;8.20;;
26965;SDS011;14522;52.068;4.414;2023-02-17T04:05:51;26.40;;;9.13;;
26965;SDS011;14522;52.068;4.414;2023-02-17T04:08:20;25.85;;;8.80;;
26965;SDS011;14522;52.068;4.414;2023-02-17T04:10:50;26.27;;;9.10;;
26965;SDS011;14522;52.068;4.414;2023-02-17T04:13:16;30.38;;;9.07;;
26965;SDS011;14522;52.068;4.414;2023-02-17T04:15:42;26.73;;;8.48;;
26965;SDS011;14522;52.068;4.414;2023-02-17T04:18:09;26.02;;;8.27;;
26965;SDS011;14522;52.068;4.414;2023-02-17T04:20:35;29.52;;;10.75;;
26965;SDS011;14522;52.068;4.414;2023-02-17T04:23:01;29.70;;;9.00;;
26965;SDS011;14522;52.068;4.414;2023-02-17T04:25:28;20.55;;;7.80;;
26965;SDS011;14522;52.068;4.414;2023-02-17T04:27:54;31.38;;;8.98;;
26965;SDS011;14522;52.068;4.414;2023-02-17T04:30:20;33.28;;;9.23;;
26965;SDS011;14522;52.068;4.414;2023-02-17T04:32:47;26.90;;;8.05;;
26965;SDS011;14522;52.068;4.414;2023-02-17T04:35:13;27.98;;;7.80;;
26965;SDS011;14522;52.068;4.414;2023-02-17T04:37:40;28.02;;;8.15;;
26965;SDS011;14522;52.068;4.414;2023-02-17T04:40:06;29.02;;;7.25;;
26965;SDS011;14522;52.068;4.414;2023-02-17T04:42:35;28.45;;;6.65;;
26965;SDS011;14522;52.068;4.414;2023-02-17T04:45:05;27.63;;;7.78;;
26965;SDS011;14522;52.068;4.414;2023-02-17T04:47:32;23.85;;;7.88;;
26965;SDS011;14522;52.068;4.414;2023-02-17T04:49:58;31.40;;;8.30;;
26965;SDS011;14522;52.068;4.414;2023-02-17T04:52:25;24.77;;;7.78;;
26965;SDS011;14522;52.068;4.414;2023-02-17T04:54:51;28.55;;;8.50;;
26965;SDS011;14522;52.068;4.414;2023-02-17T04:57:17;33.03;;;9.57;;
26965;SDS011;14522;52.068;4.414;2023-02-17T04:59:44;29.40;;;9.52;;
26965;SDS011;14522;52.068;4.414;2023-02-17T05:02:10;27.80;;;9.93;;
26965;SDS011;14522;52.068;4.414;2023-02-17T05:04:37;33.40;;;10.93;;
26965;SDS011;14522;52.068;4.414;2023-02-17T05:07:03;33.88;;;11.15;;
26965;SDS011;14522;52.068;4.414;2023-02-17T05:09:30;30.00;;;10.75;;
26965;SDS011;14522;52.068;4.414;2023-02-17T05:11:56;30.27;;;10.20;;
26965;SDS011;14522;52.068;4.414;2023-02-17T05:14:22;36.30;;;11.05;;
26965;SDS011;14522;52.068;4.414;2023-02-17T05:16:49;32.92;;;11.90;;
26965;SDS011;14522;52.068;4.414;2023-02-17T05:19:15;31.02;;;10.93;;
26965;SDS011;14522;52.068;4.414;2023-02-17T05:21:41;35.95;;;10.68;;
26965;SDS011;14522;52.068;4.414;2023-02-17T05:24:08;29.05;;;10.65;;
26965;SDS011;14522;52.068;4.414;2023-02-17T05:26:34;33.53;;;11.63;;
26965;SDS011;14522;52.068;4.414;2023-02-17T05:29:00;28.33;;;10.13;;
26965;SDS011;14522;52.068;4.414;2023-02-17T05:31:27;30.98;;;11.85;;
26965;SDS011;14522;52.068;4.414;2023-02-17T05:33:54;31.25;;;11.27;;
26965;SDS011;14522;52.068;4.414;2023-02-17T05:36:20;27.45;;;11.10;;
26965;SDS011;14522;52.068;4.414;2023-02-17T05:38:46;24.83;;;11.23;;
26965;SDS011;14522;52.068;4.414;2023-02-17T05:41:15;24.48;;;9.93;;
26965;SDS011;14522;52.068;4.414;2023-02-17T05:43:41;27.83;;;10.73;;
26965;SDS011;14522;52.068;4.414;2023-02-17T05:46:08;26.83;;;11.57;;
26965;SDS011;14522;52.068;4.414;2023-02-17T05:48:35;22.65;;;10.70;;
26965;SDS011;14522;52.068;4.414;2023-02-17T05:51:01;24.60;;;10.43;;
26965;SDS011;14522;52.068;4.414;2023-02-17T05:53:28;21.33;;;8.43;;
26965;SDS011;14522;52.068;4.414;2023-02-17T05:55:54;22.20;;;9.30;;
26965;SDS011;14522;52.068;4.414;2023-02-17T05:58:21;18.25;;;9.02;;
26965;SDS011;14522;52.068;4.414;2023-02-17T06:00:47;15.73;;;7.72;;
26965;SDS011;14522;52.068;4.414;2023-02-17T06:03:14;17.80;;;8.38;;
26965;SDS011;14522;52.068;4.414;2023-02-17T06:05:40;17.83;;;8.18;;
26965;SDS011;14522;52.068;4.414;2023-02-17T06:08:06;18.55;;;8.05;;
26965;SDS011;14522;52.068;4.414;2023-02-17T06:10:33;13.02;;;7.05;;
26965;SDS011;14522;52.068;4.414;2023-02-17T06:12:59;18.33;;;7.25;;
26965;SDS011;14522;52.068;4.414;2023-02-17T06:15:26;13.75;;;6.18;;
26965;SDS011;14522;52.068;4.414;2023-02-17T06:17:52;14.07;;;6.50;;
26965;SDS011;14522;52.068;4.414;2023-02-17T06:20:18;13.50;;;6.25;;
26965;SDS011;14522;52.068;4.414;2023-02-17T06:22:45;11.85;;;6.13;;
26965;SDS011;14522;52.068;4.414;2023-02-17T06:25:11;13.48;;;6.10;;
26965;SDS011;14522;52.068;4.414;2023-02-17T06:27:38;13.63;;;6.55;;
26965;SDS011;14522;52.068;4.414;2023-02-17T06:30:04;15.32;;;6.32;;
26965;SDS011;14522;52.068;4.414;2023-02-17T06:32:31;15.95;;;6.82;;
26965;SDS011;14522;52.068;4.414;2023-02-17T06:34:57;15.48;;;6.75;;
26965;SDS011;14522;52.068;4.414;2023-02-17T06:37:23;13.43;;;6.18;;
26965;SDS011;14522;52.068;4.414;2023-02-17T06:39:50;15.68;;;6.90;;
26965;SDS011;14522;52.068;4.414;2023-02-17T06:42:16;18.52;;;6.65;;
26965;SDS011;14522;52.068;4.414;2023-02-17T06:44:42;15.10;;;7.13;;
26965;SDS011;14522;52.068;4.414;2023-02-17T06:47:09;15.25;;;6.38;;
26965;SDS011;14522;52.068;4.414;2023-02-17T06:49:35;16.48;;;7.43;;
26965;SDS011;14522;52.068;4.414;2023-02-17T06:52:02;18.25;;;7.47;;
26965;SDS011;14522;52.068;4.414;2023-02-17T06:54:29;13.45;;;5.70;;
26965;SDS011;14522;52.068;4.414;2023-02-17T06:56:55;11.63;;;5.90;;
26965;SDS011;14522;52.068;4.414;2023-02-17T06:59:21;16.75;;;6.43;;
26965;SDS011;14522;52.068;4.414;2023-02-17T07:01:48;18.05;;;6.43;;
26965;SDS011;14522;52.068;4.414;2023-02-17T07:04:15;16.83;;;6.47;;
26965;SDS011;14522;52.068;4.414;2023-02-17T07:06:42;15.43;;;6.03;;
26965;SDS011;14522;52.068;4.414;2023-02-17T07:09:08;17.40;;;6.60;;
26965;SDS011;14522;52.068;4.414;2023-02-17T07:11:38;15.40;;;5.22;;
26965;SDS011;14522;52.068;4.414;2023-02-17T07:14:05;15.23;;;5.28;;
26965;SDS011;14522;52.068;4.414;2023-02-17T07:16:31;14.20;;;6.55;;
26965;SDS011;14522;52.068;4.414;2023-02-17T07:18:58;15.00;;;5.82;;
26965;SDS011;14522;52.068;4.414;2023-02-17T07:21:24;15.85;;;6.35;;
26965;SDS011;14522;52.068;4.414;2023-02-17T07:23:51;11.68;;;4.57;;
26965;SDS011;14522;52.068;4.414;2023-02-17T07:26:17;18.25;;;6.03;;
26965;SDS011;14522;52.068;4.414;2023-02-17T07:28:43;15.27;;;6.10;;
26965;SDS011;14522;52.068;4.414;2023-02-17T07:31:11;10.68;;;5.68;;
26965;SDS011;14522;52.068;4.414;2023-02-17T07:33:39;13.45;;;6.50;;
26965;SDS011;14522;52.068;4.414;2023-02-17T07:36:09;14.25;;;7.65;;
26965;SDS011;14522;52.068;4.414;2023-02-17T07:38:36;13.05;;;6.32;;
26965;SDS011;14522;52.068;4.414;2023-02-17T07:41:07;16.67;;;7.00;;
26965;SDS011;14522;52.068;4.414;2023-02-17T07:43:34;14.25;;;5.50;;
26965;SDS011;14522;52.068;4.414;2023-02-17T07:46:00;11.90;;;5.50;;
26965;SDS011;14522;52.068;4.414;2023-02-17T07:48:27;10.77;;;5.50;;
26965;SDS011;14522;52.068;4.414;2023-02-17T07:50:53;13.13;;;6.00;;
26965;SDS011;14522;52.068;4.414;2023-02-17T07:53:19;11.85;;;4.68;;
26965;SDS011;14522;52.068;4.414;2023-02-17T07:55:46;15.07;;;6.13;;
26965;SDS011;14522;52.068;4.414;2023-02-17T07:58:12;12.32;;;5.30;;
26965;SDS011;14522;52.068;4.414;2023-02-17T08:00:39;16.45;;;5.40;;
26965;SDS011;14522;52.068;4.414;2023-02-17T08:03:05;11.43;;;4.68;;
26965;SDS011;14522;52.068;4.414;2023-02-17T08:05:32;11.05;;;5.88;;
26965;SDS011;14522;52.068;4.414;2023-02-17T08:07:58;11.07;;;4.60;;
26965;SDS011;14522;52.068;4.414;2023-02-17T08:10:43;13.27;;;4.45;;
26965;SDS011;14522;52.068;4.414;2023-02-17T08:13:28;13.85;;;5.22;;
26965;SDS011;14522;52.068;4.414;2023-02-17T08:15:54;13.48;;;4.93;;
26965;SDS011;14522;52.068;4.414;2023-02-17T08:18:21;15.95;;;5.68;;
26965;SDS011;14522;52.068;4.414;2023-02-17T08:20:47;11.80;;;4.53;;
26965;SDS011;14522;52.068;4.414;2023-02-17T08:23:15;7.60;;;4.20;;
26965;SDS011;14522;52.068;4.414;2023-02-17T08:25:43;15.80;;;5.25;;
26965;SDS011;14522;52.068;4.414;2023-02-17T08:28:09;17.50;;;5.80;;
26965;SDS011;14522;52.068;4.414;2023-02-17T08:30:36;13.98;;;5.65;;
26965;SDS011;14522;52.068;4.414;2023-02-17T08:33:04;15.02;;;5.15;;
26965;SDS011;14522;52.068;4.414;2023-02-17T08:35:30;16.23;;;4.93;;
26965;SDS011;14522;52.068;4.414;2023-02-17T08:37:57;15.82;;;4.53;;
26965;SDS011;14522;52.068;4.414;2023-02-17T08:40:23;19.05;;;5.28;;
26965;SDS011;14522;52.068;4.414;2023-02-17T08:42:49;17.80;;;5.30;;
26965;SDS011;14522;52.068;4.414;2023-02-17T08:45:16;18.10;;;5.65;;
26965;SDS011;14522;52.068;4.414;2023-02-17T08:47:42;10.48;;;4.93;;
26965;SDS011;14522;52.068;4.414;2023-02-17T08:50:10;14.75;;;5.20;;
26965;SDS011;14522;52.068;4.414;2023-02-17T08:52:37;12.70;;;4.03;;
26965;SDS011;14522;52.068;4.414;2023-02-17T08:55:03;14.30;;;4.68;;
26965;SDS011;14522;52.068;4.414;2023-02-17T08:57:30;12.70;;;4.70;;
26965;SDS011;14522;52.068;4.414;2023-02-17T08:59:56;16.00;;;5.50;;
26965;SDS011;14522;52.068;4.414;2023-02-17T09:02:22;17.02;;;5.20;;
26965;SDS011;14522;52.068;4.414;2023-02-17T09:04:49;14.10;;;5.45;;
26965;SDS011;14522;52.068;4.414;2023-02-17T09:07:15;14.43;;;5.00;;
26965;SDS011;14522;52.068;4.414;2023-02-17T09:09:42;13.95;;;4.25;;
26965;SDS011;14522;52.068;4.414;2023-02-17T09:12:08;16.10;;;4.63;;
26965;SDS011;14522;52.068;4.414;2023-02-17T09:14:34;14.95;;;5.07;;
26965;SDS011;14522;52.068;4.414;2023-02-17T09:17:01;14.95;;;5.13;;
26965;SDS011;14522;52.068;4.414;2023-02-17T09:19:27;11.02;;;5.22;;
26965;SDS011;14522;52.068;4.414;2023-02-17T09:21:54;16.40;;;5.78;;
26965;SDS011;14522;52.068;4.414;2023-02-17T09:24:20;16.13;;;5.28;;
26965;SDS011;14522;52.068;4.414;2023-02-17T09:26:47;13.20;;;3.72;;
26965;SDS011;14522;52.068;4.414;2023-02-17T09:29:13;14.18;;;5.55;;
26965;SDS011;14522;52.068;4.414;2023-02-17T09:31:40;16.85;;;6.43;;
26965;SDS011;14522;52.068;4.414;2023-02-17T09:34:06;10.80;;;4.45;;
26965;SDS011;14522;52.068;4.414;2023-02-17T09:36:36;10.50;;;5.45;;
26965;SDS011;14522;52.068;4.414;2023-02-17T09:39:04;13.52;;;4.63;;
26965;SDS011;14522;52.068;4.414;2023-02-17T09:41:36;18.85;;;6.60;;
26965;SDS011;14522;52.068;4.414;2023-02-17T09:44:20;13.07;;;5.22;;
26965;SDS011;14522;52.068;4.414;2023-02-17T09:46:50;13.60;;;4.95;;
26965;SDS011;14522;52.068;4.414;2023-02-17T09:49:30;13.07;;;4.95;;
26965;SDS011;14522;52.068;4.414;2023-02-17T09:51:58;13.50;;;4.80;;
26965;SDS011;14522;52.068;4.414;2023-02-17T09:54:31;17.73;;;5.43;;
26965;SDS011;14522;52.068;4.414;2023-02-17T09:57:00;12.07;;;4.40;;
26965;SDS011;14522;52.068;4.414;2023-02-17T09:59:30;15.55;;;5.75;;
26965;SDS011;14522;52.068;4.414;2023-02-17T10:01:57;16.58;;;5.70;;
26965;SDS011;14522;52.068;4.414;2023-02-17T10:04:27;18.00;;;5.00;;
26965;SDS011;14522;52.068;4.414;2023-02-17T10:09:53;13.33;;;3.97;;
26965;SDS011;14522;52.068;4.414;2023-02-17T10:12:23;15.02;;;5.57;;
26965;SDS011;14522;52.068;4.414;2023-02-17T10:14:52;13.10;;;4.75;;
26965;SDS011;14522;52.068;4.414;2023-02-17T10:20:04;15.02;;;5.15;;
26965;SDS011;14522;52.068;4.414;2023-02-17T10:22:32;18.35;;;5.60;;
26965;SDS011;14522;52.068;4.414;2023-02-17T10:24:59;15.38;;;5.63;;
26965;SDS011;14522;52.068;4.414;2023-02-17T10:27:35;11.57;;;4.95;;
26965;SDS011;14522;52.068;4.414;2023-02-17T10:35:15;20.23;;;4.35;;
26965;SDS011;14522;52.068;4.414;2023-02-17T10:37:44;18.75;;;4.38;;
26965;SDS011;14522;52.068;4.414;2023-02-17T10:40:13;15.13;;;4.35;;
26965;SDS011;14522;52.068;4.414;2023-02-17T10:42:40;10.93;;;3.90;;
26965;SDS011;14522;52.068;4.414;2023-02-17T10:47:34;17.42;;;4.28;;
26965;SDS011;14522;52.068;4.414;2023-02-17T10:50:01;14.50;;;4.72;;
26965;SDS011;14522;52.068;4.414;2023-02-17T10:52:35;10.32;;;3.38;;
26965;SDS011;14522;52.068;4.414;2023-02-17T10:55:03;14.50;;;4.57;;
26965;SDS011;14522;52.068;4.414;2023-02-17T10:57:48;14.27;;;4.18;;
26965;SDS011;14522;52.068;4.414;2023-02-17T11:00:16;16.33;;;5.05;;
26965;SDS011;14522;52.068;4.414;2023-02-17T11:02:43;19.95;;;4.70;;
26965;SDS011;14522;52.068;4.414;2023-02-17T11:05:21;18.52;;;5.05;;
26965;SDS011;14522;52.068;4.414;2023-02-17T11:07:47;19.77;;;4.72;;
26965;SDS011;14522;52.068;4.414;2023-02-17T11:12:46;15.13;;;3.95;;
26965;SDS011;14522;52.068;4.414;2023-02-17T11:15:19;13.80;;;4.28;;
26965;SDS011;14522;52.068;4.414;2023-02-17T11:17:46;21.95;;;5.15;;
26965;SDS011;14522;52.068;4.414;2023-02-17T11:22:40;15.57;;;4.18;;
26965;SDS011;14522;52.068;4.414;2023-02-17T11:25:24;17.55;;;4.38;;
26965;SDS011;14522;52.068;4.414;2023-02-17T11:27:57;17.27;;;3.33;;
26965;SDS011;14522;52.068;4.414;2023-02-17T11:30:25;20.98;;;4.25;;
26965;SDS011;14522;52.068;4.414;2023-02-17T11:32:52;13.32;;;3.78;;
26965;SDS011;14522;52.068;4.414;2023-02-17T11:35:27;11.65;;;4.38;;
26965;SDS011;14522;52.068;4.414;2023-02-17T11:37:59;17.35;;;4.32;;
26965;SDS011;14522;52.068;4.414;2023-02-17T11:40:28;13.25;;;4.05;;
26965;SDS011;14522;52.068;4.414;2023-02-17T11:42:55;11.38;;;2.63;;
26965;SDS011;14522;52.068;4.414;2023-02-17T11:45:22;16.77;;;3.40;;
26965;SDS011;14522;52.068;4.414;2023-02-17T11:50:25;16.88;;;3.88;;
26965;SDS011;14522;52.068;4.414;2023-02-17T11:58:16;19.17;;;4.00;;
26965;SDS011;14522;52.068;4.414;2023-02-17T12:03:29;15.55;;;3.50;;
26965;SDS011;14522;52.068;4.414;2023-02-17T12:08:37;12.65;;;3.22;;
26965;SDS011;14522;52.068;4.414;2023-02-17T12:13:54;18.10;;;3.38;;
26965;SDS011;14522;52.068;4.414;2023-02-17T12:22:25;17.33;;;3.25;;
26965;SDS011;14522;52.068;4.414;2023-02-17T12:27:26;14.60;;;3.03;;
26965;SDS011;14522;52.068;4.414;2023-02-17T12:30:05;20.77;;;4.13;;
26965;SDS011;14522;52.068;4.414;2023-02-17T12:35:12;20.05;;;2.95;;
26965;SDS011;14522;52.068;4.414;2023-02-17T12:38:03;16.20;;;2.75;;
26965;SDS011;14522;52.068;4.414;2023-02-17T12:40:35;20.58;;;3.05;;
26965;SDS011;14522;52.068;4.414;2023-02-17T12:45:48;21.23;;;4.10;;
26965;SDS011;14522;52.068;4.414;2023-02-17T12:48:31;21.13;;;3.38;;
26965;SDS011;14522;52.068;4.414;2023-02-17T12:51:02;16.73;;;3.10;;
26965;SDS011;14522;52.068;4.414;2023-02-17T12:56:22;14.00;;;2.65;;
26965;SDS011;14522;52.068;4.414;2023-02-17T12:59:30;14.80;;;2.30;;
26965;SDS011;14522;52.068;4.414;2023-02-17T13:01:54;19.00;;;3.08;;
26965;SDS011;14522;52.068;4.414;2023-02-17T13:04:23;20.38;;;3.20;;
26965;SDS011;14522;52.068;4.414;2023-02-17T13:06:54;13.93;;;2.38;;
26965;SDS011;14522;52.068;4.414;2023-02-17T13:09:36;19.58;;;2.97;;
26965;SDS011;14522;52.068;4.414;2023-02-17T13:14:59;23.17;;;3.03;;
26965;SDS011;14522;52.068;4.414;2023-02-17T13:17:37;7.38;;;1.80;;
26965;SDS011;14522;52.068;4.414;2023-02-17T13:22:33;12.40;;;2.80;;
26965;SDS011;14522;52.068;4.414;2023-02-17T13:24:59;12.38;;;2.20;;
26965;SDS011;14522;52.068;4.414;2023-02-17T13:32:41;11.70;;;2.60;;
26965;SDS011;14522;52.068;4.414;2023-02-17T13:35:28;9.15;;;2.15;;
26965;SDS011;14522;52.068;4.414;2023-02-17T13:37:56;24.17;;;3.08;;
26965;SDS011;14522;52.068;4.414;2023-02-17T13:42:50;10.85;;;2.05;;
26965;SDS011;14522;52.068;4.414;2023-02-17T13:47:43;21.38;;;3.55;;
26965;SDS011;14522;52.068;4.414;2023-02-17T13:53:48;14.02;;;2.78;;
26965;SDS011;14522;52.068;4.414;2023-02-17T13:58:48;16.10;;;2.70;;
26965;SDS011;14522;52.068;4.414;2023-02-17T14:01:16;10.82;;;2.60;;
26965;SDS011;14522;52.068;4.414;2023-02-17T14:03:46;17.83;;;2.97;;
26965;SDS011;14522;52.068;4.414;2023-02-17T14:06:25;12.60;;;2.30;;
26965;SDS011;14522;52.068;4.414;2023-02-17T14:08:52;15.30;;;2.35;;
26965;SDS011;14522;52.068;4.414;2023-02-17T14:11:20;21.77;;;2.55;;
26965;SDS011;14522;52.068;4.414;2023-02-17T14:13:47;15.27;;;2.88;;
26965;SDS011;14522;52.068;4.414;2023-02-17T14:16:54;13.90;;;2.15;;
26965;SDS011;14522;52.068;4.414;2023-02-17T14:21:33;15.40;;;2.53;;
26965;SDS011;14522;52.068;4.414;2023-02-17T14:23:59;14.52;;;2.60;;
26965;SDS011;14522;52.068;4.414;2023-02-17T14:28:53;15.32;;;2.22;;
26965;SDS011;14522;52.068;4.414;2023-02-17T14:31:21;17.52;;;2.38;;
26965;SDS011;14522;52.068;4.414;2023-02-17T14:33:54;12.32;;;2.22;;
26965;SDS011;14522;52.068;4.414;2023-02-17T14:36:39;14.15;;;2.50;;
26965;SDS011;14522;52.068;4.414;2023-02-17T14:39:06;10.98;;;2.00;;
26965;SDS011;14522;52.068;4.414;2023-02-17T14:41:33;10.45;;;2.15;;
26965;SDS011;14522;52.068;4.414;2023-02-17T14:43:59;9.73;;;1.83;;
26965;SDS011;14522;52.068;4.414;2023-02-17T14:46:26;9.93;;;2.10;;
26965;SDS011;14522;52.068;4.414;2023-02-17T14:48:53;11.23;;;2.42;;
26965;SDS011;14522;52.068;4.414;2023-02-17T14:51:21;11.20;;;2.80;;
26965;SDS011;14522;52.068;4.414;2023-02-17T14:53:48;15.63;;;2.33;;
26965;SDS011;14522;52.068;4.414;2023-02-17T14:58:47;13.32;;;2.17;;
26965;SDS011;14522;52.068;4.414;2023-02-17T15:01:15;14.57;;;2.45;;
26965;SDS011;14522;52.068;4.414;2023-02-17T15:03:42;14.93;;;2.58;;
26965;SDS011;14522;52.068;4.414;2023-02-17T15:06:13;15.50;;;2.80;;
26965;SDS011;14522;52.068;4.414;2023-02-17T15:08:40;21.45;;;2.85;;
26965;SDS011;14522;52.068;4.414;2023-02-17T15:11:06;15.18;;;2.22;;
26965;SDS011;14522;52.068;4.414;2023-02-17T15:13:37;14.68;;;2.03;;
26965;SDS011;14522;52.068;4.414;2023-02-17T15:16:04;13.40;;;2.53;;
26965;SDS011;14522;52.068;4.414;2023-02-17T15:18:32;13.65;;;2.78;;
26965;SDS011;14522;52.068;4.414;2023-02-17T15:20:59;16.92;;;2.72;;
26965;SDS011;14522;52.068;4.414;2023-02-17T15:23:26;13.40;;;2.35;;
26965;SDS011;14522;52.068;4.414;2023-02-17T15:25:55;14.68;;;2.03;;
26965;SDS011;14522;52.068;4.414;2023-02-17T15:28:22;8.65;;;1.98;;
26965;SDS011;14522;52.068;4.414;2023-02-17T15:30:52;13.75;;;1.98;;
26965;SDS011;14522;52.068;4.414;2023-02-17T15:33:20;10.55;;;1.60;;
26965;SDS011;14522;52.068;4.414;2023-02-17T15:35:47;13.63;;;2.15;;
26965;SDS011;14522;52.068;4.414;2023-02-17T15:38:15;13.40;;;2.38;;
26965;SDS011;14522;52.068;4.414;2023-02-17T15:40:41;16.55;;;2.75;;
26965;SDS011;14522;52.068;4.414;2023-02-17T15:43:10;17.50;;;2.40;;
26965;SDS011;14522;52.068;4.414;2023-02-17T15:45:38;9.48;;;1.65;;
26965;SDS011;14522;52.068;4.414;2023-02-17T15:48:05;14.57;;;2.15;;
26965;SDS011;14522;52.068;4.414;2023-02-17T15:50:32;12.40;;;2.55;;
26965;SDS011;14522;52.068;4.414;2023-02-17T15:52:58;14.88;;;2.38;;
26965;SDS011;14522;52.068;4.414;2023-02-17T15:55:25;15.55;;;3.03;;
26965;SDS011;14522;52.068;4.414;2023-02-17T15:57:55;10.98;;;2.33;;
26965;SDS011;14522;52.068;4.414;2023-02-17T16:00:26;14.48;;;2.67;;
26965;SDS011;14522;52.068;4.414;2023-02-17T16:02:52;16.98;;;2.65;;
26965;SDS011;14522;52.068;4.414;2023-02-17T16:05:19;16.52;;;3.10;;
26965;SDS011;14522;52.068;4.414;2023-02-17T16:07:46;13.32;;;2.50;;
26965;SDS011;14522;52.068;4.414;2023-02-17T16:10:14;17.23;;;2.58;;
26965;SDS011;14522;52.068;4.414;2023-02-17T16:12:41;12.18;;;2.20;;
26965;SDS011;14522;52.068;4.414;2023-02-17T16:15:15;16.02;;;2.80;;